createdAt,value
2018-05-14T00:01:15.995Z,99.90
2018-05-14T00:03:43.482Z,99.90
2018-05-14T00:06:11.700Z,99.90
2018-05-14T00:08:39.148Z,99.90
2018-05-14T00:11:06.590Z,99.90
2018-05-14T00:13:34.047Z,99.90
2018-05-14T00:16:01.495Z,99.90
2018-05-14T00:18:28.960Z,99.90
2018-05-14T00:20:56.411Z,99.90
2018-05-14T00:23:24.288Z,99.90
2018-05-14T00:25:51.744Z,99.90
2018-05-14T00:28:19.207Z,99.90
2018-05-14T00:30:46.650Z,99.90
2018-05-14T00:33:14.124Z,99.90
2018-05-14T00:35:41.584Z,99.90
2018-05-14T00:38:09.048Z,99.90
2018-05-14T00:40:36.501Z,99.90
2018-05-14T00:43:03.983Z,99.90
2018-05-14T00:45:31.435Z,99.90
2018-05-14T00:47:58.894Z,99.90
2018-05-14T00:50:26.362Z,99.90
2018-05-14T00:52:53.811Z,99.90
2018-05-14T00:55:21.276Z,99.90
2018-05-14T00:57:48.840Z,99.90
2018-05-14T01:00:16.288Z,99.90
2018-05-14T01:02:43.851Z,99.90
2018-05-14T01:05:11.794Z,99.90
2018-05-14T01:07:39.279Z,99.90
2018-05-14T01:10:06.735Z,99.90
2018-05-14T01:12:34.186Z,99.90
2018-05-14T01:15:01.671Z,99.90
2018-05-14T01:17:29.901Z,99.90
2018-05-14T01:19:57.366Z,99.90
2018-05-14T01:22:24.828Z,99.90
2018-05-14T01:24:58.112Z,99.90
2018-05-14T01:27:25.580Z,99.90
2018-05-14T01:29:53.061Z,99.90
2018-05-14T01:32:20.525Z,99.90
2018-05-14T01:34:47.986Z,99.90
2018-05-14T01:37:15.450Z,99.90
2018-05-14T01:39:42.886Z,99.90
2018-05-14T01:42:10.764Z,99.90
2018-05-14T01:44:38.218Z,99.90
2018-05-14T01:47:05.713Z,99.90
2018-05-14T01:49:33.923Z,99.90
2018-05-14T01:52:01.422Z,99.90
2018-05-14T01:54:28.859Z,99.90
2018-05-14T01:56:56.326Z,99.90
2018-05-14T01:59:23.796Z,99.90
2018-05-14T02:01:58.307Z,99.90
2018-05-14T02:04:25.776Z,99.90
2018-05-14T02:06:53.255Z,99.90
2018-05-14T02:09:20.791Z,99.90
2018-05-14T02:11:48.346Z,99.90
2018-05-14T02:14:15.790Z,99.90
2018-05-14T02:16:44.064Z,99.90
2018-05-14T02:19:11.546Z,99.90
2018-05-14T02:21:39.000Z,99.90
2018-05-14T02:24:07.171Z,99.90
2018-05-14T02:26:34.629Z,99.90
2018-05-14T02:29:02.141Z,99.90
2018-05-14T02:31:29.595Z,99.90
2018-05-14T02:33:57.836Z,99.90
2018-05-14T02:36:25.292Z,99.90
2018-05-14T02:38:52.747Z,99.90
2018-05-14T02:41:20.218Z,99.90
2018-05-14T02:43:47.773Z,99.90
2018-05-14T02:46:15.327Z,99.90
2018-05-14T02:48:42.878Z,99.90
2018-05-14T02:51:10.339Z,99.90
2018-05-14T02:53:37.808Z,99.90
2018-05-14T02:56:05.252Z,99.90
2018-05-14T02:58:32.707Z,99.90
2018-05-14T03:01:00.184Z,99.90
2018-05-14T03:03:27.654Z,99.90
2018-05-14T03:05:55.912Z,99.90
2018-05-14T03:08:23.383Z,99.90
2018-05-14T03:10:50.837Z,99.90
2018-05-14T03:13:18.331Z,99.90
2018-05-14T03:15:46.570Z,99.90
2018-05-14T03:18:14.056Z,99.90
2018-05-14T03:20:41.585Z,99.90
2018-05-14T03:23:09.145Z,99.90
2018-05-14T03:25:36.605Z,99.90
2018-05-14T03:28:04.065Z,99.90
2018-05-14T03:30:31.550Z,99.90
2018-05-14T03:32:59.793Z,99.90
2018-05-14T03:35:27.240Z,99.90
2018-05-14T03:37:54.713Z,99.90
2018-05-14T03:40:22.208Z,99.90
2018-05-14T03:42:50.435Z,99.90
2018-05-14T03:45:17.973Z,99.90
2018-05-14T03:47:45.467Z,99.90
2018-05-14T03:50:13.034Z,99.90
2018-05-14T03:52:40.487Z,99.90
2018-05-14T03:55:07.954Z,99.90
2018-05-14T03:57:36.949Z,99.90
2018-05-14T04:00:16.384Z,99.90
2018-05-14T04:02:55.671Z,99.90
2018-05-14T04:08:22.606Z,99.90
2018-05-14T04:10:50.021Z,99.90
2018-05-14T04:13:17.609Z,99.90
2018-05-14T04:15:45.261Z,99.90
2018-05-14T04:18:12.988Z,99.90
2018-05-14T04:20:40.489Z,99.90
2018-05-14T04:23:07.948Z,99.90
2018-05-14T04:25:35.404Z,99.90
2018-05-14T04:28:02.860Z,99.90
2018-05-14T04:30:30.419Z,99.90
2018-05-14T04:32:57.883Z,99.90
2018-05-14T04:35:25.348Z,99.90
2018-05-14T04:37:52.804Z,99.90
2018-05-14T04:40:20.267Z,99.90
2018-05-14T04:42:47.811Z,99.90
2018-05-14T04:45:15.272Z,99.90
2018-05-14T04:47:43.499Z,99.90
2018-05-14T04:50:10.963Z,99.90
2018-05-14T04:52:38.448Z,99.90
2018-05-14T04:55:05.913Z,99.90
2018-05-14T04:57:33.384Z,99.90
2018-05-14T05:00:00.949Z,99.90
2018-05-14T05:02:28.408Z,99.90
2018-05-14T05:07:49.400Z,99.90
2018-05-14T05:10:16.873Z,99.90
2018-05-14T05:12:44.336Z,99.90
2018-05-14T05:15:11.917Z,99.90
2018-05-14T05:17:40.159Z,99.90
2018-05-14T05:20:07.619Z,99.90
2018-05-14T05:22:35.077Z,99.90
2018-05-14T05:25:02.536Z,99.90
2018-05-14T05:27:30.000Z,99.90
2018-05-14T05:29:57.572Z,99.90
2018-05-14T05:32:25.029Z,99.90
2018-05-14T05:34:52.497Z,99.90
2018-05-14T05:37:19.990Z,99.90
2018-05-14T05:39:48.211Z,99.90
2018-05-14T05:42:16.058Z,99.90
2018-05-14T05:44:43.512Z,99.90
2018-05-14T05:47:10.980Z,99.90
2018-05-14T05:49:38.456Z,99.90
2018-05-14T05:52:05.916Z,99.90
2018-05-14T05:54:33.379Z,99.90
2018-05-14T05:57:00.836Z,99.90
2018-05-14T05:59:28.402Z,99.90
2018-05-14T06:02:09.253Z,99.90
2018-05-14T06:04:36.736Z,99.90
2018-05-14T06:07:04.227Z,99.90
2018-05-14T06:09:31.708Z,99.90
2018-05-14T06:11:59.116Z,99.90
2018-05-14T06:14:26.584Z,99.90
2018-05-14T06:16:54.129Z,99.90
2018-05-14T06:19:21.592Z,99.90
2018-05-14T06:21:49.916Z,99.90
2018-05-14T06:24:17.427Z,99.90
2018-05-14T06:26:44.887Z,99.90
2018-05-14T06:29:12.355Z,99.90
2018-05-14T06:31:39.819Z,99.90
2018-05-14T06:34:07.298Z,99.90
2018-05-14T06:36:35.516Z,99.90
2018-05-14T06:39:02.990Z,99.90
2018-05-14T06:41:30.442Z,99.90
2018-05-14T06:43:57.917Z,99.90
2018-05-14T06:46:25.376Z,99.90
2018-05-14T06:48:52.838Z,99.90
2018-05-14T06:51:20.296Z,99.90
2018-05-14T06:53:47.752Z,99.90
2018-05-14T06:56:15.221Z,99.90
2018-05-14T06:58:42.696Z,99.90
2018-05-14T07:01:10.909Z,99.90
2018-05-14T07:03:38.369Z,99.90
2018-05-14T07:06:05.842Z,99.90
2018-05-14T07:08:33.434Z,99.90
2018-05-14T07:11:00.785Z,99.90
2018-05-14T07:13:28.255Z,99.90
2018-05-14T07:15:56.487Z,99.90
2018-05-14T07:18:23.953Z,99.90
2018-05-14T07:20:51.431Z,99.90
2018-05-14T07:23:18.895Z,99.90
2018-05-14T07:25:46.364Z,99.90
2018-05-14T07:28:14.600Z,99.90
2018-05-14T07:30:42.140Z,99.90
2018-05-14T07:33:09.597Z,99.90
2018-05-14T07:35:37.063Z,99.90
2018-05-14T07:38:04.531Z,99.90
2018-05-14T07:40:32.032Z,99.90
2018-05-14T07:42:59.452Z,99.90
2018-05-14T07:45:26.919Z,99.90
2018-05-14T07:47:54.376Z,99.90
2018-05-14T07:50:21.852Z,99.90
2018-05-14T07:52:49.308Z,99.90
2018-05-14T07:55:16.767Z,99.90
2018-05-14T07:57:44.231Z,98.20
2018-05-14T08:00:11.773Z,98.80
2018-05-14T08:02:39.153Z,98.70
2018-05-14T08:05:06.607Z,98.20
2018-05-14T08:07:34.063Z,99.40
2018-05-14T08:10:01.518Z,97.90
2018-05-14T08:12:28.985Z,98.60
2018-05-14T08:14:56.447Z,98.30
2018-05-14T08:17:23.907Z,99.90
2018-05-14T08:19:51.380Z,98.20
2018-05-14T08:22:19.607Z,98.70
2018-05-14T08:24:47.072Z,98.60
2018-05-14T08:27:14.540Z,99.30
2018-05-14T08:29:42.008Z,98.60
2018-05-14T08:32:09.933Z,98.90
2018-05-14T08:34:37.387Z,97.90
2018-05-14T08:37:04.929Z,99.40
2018-05-14T08:39:32.335Z,98.40
2018-05-14T08:41:59.793Z,99.10
2018-05-14T08:44:27.270Z,98.50
2018-05-14T08:46:55.106Z,98.90
2018-05-14T08:49:22.760Z,98.60
2018-05-14T08:51:50.021Z,99.20
2018-05-14T08:54:17.514Z,97.90
2018-05-14T08:56:44.948Z,98.30
2018-05-14T08:59:12.407Z,98.70
2018-05-14T09:01:39.879Z,97.60
2018-05-14T09:04:07.331Z,98.30
2018-05-14T09:06:34.800Z,97.90
2018-05-14T09:09:02.269Z,98.10
2018-05-14T09:11:29.730Z,98.10
2018-05-14T09:13:57.967Z,98.50
2018-05-14T09:16:25.433Z,98.10
2018-05-14T09:18:52.892Z,99.40
2018-05-14T09:21:20.346Z,97.70
2018-05-14T09:23:47.806Z,97.00
2018-05-14T09:26:15.264Z,98.50
2018-05-14T09:28:42.724Z,97.90
2018-05-14T09:31:10.185Z,96.80
2018-05-14T09:33:37.664Z,97.40
2018-05-14T09:36:05.130Z,96.40
2018-05-14T09:38:32.577Z,96.80
2018-05-14T09:41:00.055Z,96.60
2018-05-14T09:43:28.285Z,94.60
2018-05-14T09:45:55.735Z,94.60
2018-05-14T09:48:23.197Z,94.30
2018-05-14T09:50:50.652Z,95.40
2018-05-14T09:53:18.118Z,94.60
2018-05-14T09:55:45.590Z,95.90
2018-05-14T09:58:16.269Z,94.50
2018-05-14T10:00:44.496Z,94.30
2018-05-14T10:03:11.955Z,94.30
2018-05-14T10:05:39.423Z,96.60
2018-05-14T10:08:06.876Z,93.80
2018-05-14T10:10:34.596Z,93.90
2018-05-14T10:13:02.083Z,93.20
2018-05-14T10:15:29.539Z,93.60
2018-05-14T10:17:56.996Z,94.20
2018-05-14T10:20:24.456Z,95.70
2018-05-14T10:22:51.916Z,94.00
2018-05-14T10:25:19.395Z,95.40
2018-05-14T10:27:46.851Z,95.00
2018-05-14T10:30:14.315Z,94.40
2018-05-14T10:32:41.772Z,94.50
2018-05-14T10:35:09.242Z,94.10
2018-05-14T10:37:36.695Z,94.10
2018-05-14T10:40:04.153Z,96.60
2018-05-14T10:42:31.605Z,93.70
2018-05-14T10:44:59.063Z,94.10
2018-05-14T10:47:26.528Z,95.10
2018-05-14T10:49:53.984Z,94.20
2018-05-14T10:52:21.440Z,91.80
2018-05-14T10:54:48.893Z,93.10
2018-05-14T10:57:16.356Z,92.80
2018-05-14T10:59:43.820Z,92.70
2018-05-14T11:02:11.488Z,93.70
2018-05-14T11:04:38.939Z,91.30
2018-05-14T11:07:06.413Z,93.10
2018-05-14T11:09:33.863Z,90.20
2018-05-14T11:12:01.347Z,91.30
2018-05-14T11:14:29.571Z,90.10
2018-05-14T11:16:57.527Z,90.10
2018-05-14T11:19:24.975Z,90.00
2018-05-14T11:21:52.427Z,90.40
2018-05-14T11:24:19.884Z,90.60
2018-05-14T11:26:47.352Z,90.80
2018-05-14T11:29:14.809Z,91.10
2018-05-14T11:31:42.272Z,90.80
2018-05-14T11:34:09.724Z,89.10
2018-05-14T11:36:37.189Z,91.10
2018-05-14T11:39:04.648Z,90.10
2018-05-14T11:41:32.104Z,90.50
2018-05-14T11:43:59.576Z,86.80
2018-05-14T11:46:27.041Z,84.20
2018-05-14T11:48:54.489Z,85.70
2018-05-14T11:51:21.941Z,87.60
2018-05-14T11:53:49.397Z,84.60
2018-05-14T11:56:16.856Z,83.50
2018-05-14T11:58:44.316Z,83.10
2018-05-14T12:01:11.775Z,85.10
2018-05-14T12:03:39.233Z,86.60
2018-05-14T12:06:06.697Z,89.50
2018-05-14T12:08:34.168Z,83.30
2018-05-14T12:11:01.625Z,82.30
2018-05-14T12:13:29.088Z,83.20
2018-05-14T12:15:56.545Z,84.60
2018-05-14T12:18:23.994Z,84.60
2018-05-14T12:20:51.456Z,84.60
2018-05-14T12:23:18.926Z,83.80
2018-05-14T12:25:46.473Z,82.90
2018-05-14T12:28:13.835Z,82.80
2018-05-14T12:30:41.301Z,83.00
2018-05-14T12:33:08.763Z,81.80
2018-05-14T12:35:36.988Z,78.10
2018-05-14T12:38:05.212Z,79.70
2018-05-14T12:40:32.669Z,79.70
2018-05-14T12:43:00.141Z,79.30
2018-05-14T12:45:28.355Z,75.80
2018-05-14T12:47:55.844Z,75.80
2018-05-14T12:50:23.295Z,82.10
2018-05-14T12:52:52.037Z,79.10
2018-05-14T12:55:19.491Z,80.50
2018-05-14T12:57:46.956Z,79.00
2018-05-14T13:00:14.411Z,77.00
2018-05-14T13:02:41.916Z,79.90
2018-05-14T13:05:09.383Z,76.50
2018-05-14T13:07:36.852Z,77.70
2018-05-14T13:10:04.316Z,77.50
2018-05-14T13:12:31.780Z,75.80
2018-05-14T13:14:59.237Z,76.60
2018-05-14T13:17:26.701Z,77.80
2018-05-14T13:19:54.163Z,75.80
2018-05-14T13:22:21.627Z,75.80
2018-05-14T13:24:49.091Z,76.30
2018-05-14T13:27:16.570Z,81.50
2018-05-14T13:29:44.015Z,77.80
2018-05-14T13:32:12.240Z,76.90
2018-05-14T13:34:40.391Z,77.30
2018-05-14T13:37:08.619Z,80.20
2018-05-14T13:39:36.084Z,80.20
2018-05-14T13:42:03.541Z,77.90
2018-05-14T13:44:31.526Z,74.30
2018-05-14T13:46:58.952Z,76.60
2018-05-14T13:49:26.403Z,75.10
2018-05-14T13:51:53.876Z,78.60
2018-05-14T13:54:21.347Z,75.60
2018-05-14T13:56:48.820Z,78.30
2018-05-14T13:59:16.281Z,76.70
2018-05-14T14:01:43.744Z,75.60
2018-05-14T14:04:11.200Z,78.30
2018-05-14T14:06:38.671Z,77.30
2018-05-14T14:09:06.120Z,78.10
2018-05-14T14:11:33.652Z,77.20
2018-05-14T14:14:01.047Z,78.10
2018-05-14T14:16:29.279Z,76.30
2018-05-14T14:18:56.739Z,76.30
2018-05-14T14:21:24.972Z,73.60
2018-05-14T14:23:53.342Z,73.80
2018-05-14T14:26:20.651Z,73.90
2018-05-14T14:28:48.104Z,74.10
2018-05-14T14:31:15.571Z,74.40
2018-05-14T14:33:43.060Z,76.80
2018-05-14T14:36:10.629Z,74.10
2018-05-14T14:38:37.981Z,73.00
2018-05-14T14:41:05.437Z,73.20
2018-05-14T14:43:32.898Z,72.80
2018-05-14T14:46:00.358Z,70.70
2018-05-14T14:48:27.824Z,72.90
2018-05-14T14:50:56.045Z,74.30
2018-05-14T14:53:23.506Z,74.20
2018-05-14T14:55:51.064Z,76.50
2018-05-14T14:58:18.547Z,71.70
2018-05-14T15:00:45.991Z,73.80
2018-05-14T15:03:13.459Z,71.40
2018-05-14T15:05:40.916Z,73.30
2018-05-14T15:08:08.387Z,71.40
2018-05-14T15:10:35.841Z,71.60
2018-05-14T15:13:03.301Z,70.10
2018-05-14T15:15:30.772Z,68.00
2018-05-14T15:17:58.228Z,69.80
2018-05-14T15:20:25.684Z,67.90
2018-05-14T15:22:53.157Z,65.80
2018-05-14T15:25:20.622Z,68.00
2018-05-14T15:27:48.847Z,65.70
2018-05-14T15:30:16.303Z,64.80
2018-05-14T15:32:43.771Z,67.10
2018-05-14T15:35:11.232Z,67.10
2018-05-14T15:37:38.691Z,63.30
2018-05-14T15:40:06.154Z,67.00
2018-05-14T15:42:33.630Z,63.80
2018-05-14T15:45:01.093Z,65.60
2018-05-14T15:47:28.550Z,63.00
2018-05-14T15:49:56.108Z,63.20
2018-05-14T15:52:23.477Z,63.50
2018-05-14T15:54:50.939Z,61.50
2018-05-14T15:57:18.400Z,63.60
2018-05-14T15:59:46.624Z,59.30
2018-05-14T16:02:14.094Z,59.10
2018-05-14T16:04:41.551Z,59.00
2018-05-14T16:07:09.017Z,58.20
2018-05-14T16:09:36.463Z,60.10
2018-05-14T16:12:03.928Z,58.50
2018-05-14T16:14:31.410Z,59.10
2018-05-14T16:16:58.875Z,59.70
2018-05-14T16:19:26.331Z,60.10
2018-05-14T16:21:53.787Z,60.00
2018-05-14T16:24:21.264Z,61.30
2018-05-14T16:26:49.489Z,63.70
2018-05-14T16:29:16.940Z,63.90
2018-05-14T16:31:44.416Z,63.80
2018-05-14T16:34:11.867Z,61.20
2018-05-14T16:36:39.327Z,62.40
2018-05-14T16:39:06.799Z,60.80
2018-05-14T16:41:34.361Z,62.50
2018-05-14T16:44:01.816Z,64.00
2018-05-14T16:46:29.271Z,63.30
2018-05-14T16:48:56.746Z,63.50
2018-05-14T16:51:24.210Z,61.80
2018-05-14T16:53:51.689Z,63.40
2018-05-14T16:56:19.917Z,64.10
2018-05-14T16:58:47.387Z,64.10
2018-05-14T17:01:14.844Z,65.30
2018-05-14T17:03:42.335Z,65.60
2018-05-14T17:06:09.766Z,64.40
2018-05-14T17:08:37.223Z,65.40
2018-05-14T17:11:04.681Z,64.90
2018-05-14T17:13:32.161Z,66.00
2018-05-14T17:15:59.611Z,66.30
2018-05-14T17:18:27.085Z,65.30
2018-05-14T17:20:54.549Z,63.90
2018-05-14T17:23:22.782Z,65.90
2018-05-14T17:25:50.227Z,65.80
2018-05-14T17:28:17.687Z,65.70
2018-05-14T17:30:45.159Z,65.10
2018-05-14T17:33:12.621Z,64.60
2018-05-14T17:35:40.099Z,67.10
2018-05-14T17:38:07.556Z,64.80
2018-05-14T17:40:35.016Z,65.70
2018-05-14T17:43:02.600Z,66.90
2018-05-14T17:45:30.817Z,68.10
2018-05-14T17:47:58.276Z,68.10
2018-05-14T17:50:25.733Z,67.10
2018-05-14T17:52:53.282Z,67.60
2018-05-14T17:55:20.659Z,67.50
2018-05-14T17:57:48.120Z,69.50
2018-05-14T18:00:15.609Z,68.20
2018-05-14T18:02:43.100Z,68.90
2018-05-14T18:05:11.474Z,68.80
2018-05-14T18:07:38.906Z,68.70
2018-05-14T18:10:06.373Z,70.10
2018-05-14T18:12:33.840Z,70.00
2018-05-14T18:15:02.083Z,69.80
2018-05-14T18:17:29.625Z,69.80
2018-05-14T18:22:39.799Z,71.10
2018-05-14T18:25:12.879Z,71.00
2018-05-14T18:27:45.991Z,71.60
2018-05-14T18:30:13.451Z,72.20
2018-05-14T18:32:41.060Z,72.00
2018-05-14T18:35:25.148Z,73.80
2018-05-14T18:37:52.672Z,73.60
2018-05-14T18:40:20.152Z,73.20
2018-05-14T18:42:47.617Z,73.90
2018-05-14T18:45:15.069Z,74.10
2018-05-14T18:47:42.523Z,73.80
2018-05-14T18:50:10.046Z,75.20
2018-05-14T18:52:37.593Z,75.60
2018-05-14T18:55:05.054Z,76.10
2018-05-14T19:00:25.771Z,75.00
2018-05-14T19:02:53.244Z,75.80
2018-05-14T19:05:20.700Z,76.50
2018-05-14T19:07:48.183Z,76.50
2018-05-14T19:10:21.291Z,77.30
2018-05-14T19:12:48.752Z,77.70
2018-05-14T19:15:22.074Z,76.40
2018-05-14T19:17:55.353Z,77.60
2018-05-14T19:20:22.807Z,77.90
2018-05-14T19:22:55.905Z,76.70
2018-05-14T19:25:23.365Z,77.50
2018-05-14T19:27:56.641Z,78.00
2018-05-14T19:30:24.153Z,78.10
2018-05-14T19:32:51.604Z,77.80
2018-05-14T19:35:24.811Z,79.00
2018-05-14T19:37:52.268Z,79.60
2018-05-14T19:40:25.401Z,80.30
2018-05-14T19:42:52.891Z,79.70
2018-05-14T19:45:20.354Z,80.20
2018-05-14T19:47:47.812Z,80.10
2018-05-14T19:50:15.288Z,81.60
2018-05-14T19:52:42.754Z,81.10
2018-05-14T19:55:10.215Z,81.20
2018-05-14T19:57:37.764Z,81.00
2018-05-14T20:00:05.228Z,82.90
2018-05-14T20:02:32.779Z,83.10
2018-05-14T20:05:00.237Z,82.10
2018-05-14T20:07:27.700Z,82.40
2018-05-14T20:09:55.168Z,82.50
2018-05-14T20:12:22.625Z,83.30
2018-05-14T20:14:50.092Z,84.20
2018-05-14T20:17:18.313Z,85.20
2018-05-14T20:19:45.770Z,85.20
2018-05-14T20:22:13.220Z,85.90
2018-05-14T20:24:40.686Z,87.00
2018-05-14T20:27:08.139Z,87.60
2018-05-14T20:29:35.617Z,88.20
2018-05-14T20:32:03.067Z,89.10
2018-05-14T20:34:30.542Z,90.10
2018-05-14T20:36:58.805Z,90.50
2018-05-14T20:39:26.271Z,90.40
2018-05-14T20:41:53.729Z,90.40
2018-05-14T20:44:21.208Z,90.60
2018-05-14T20:46:48.759Z,90.90
2018-05-14T20:49:16.222Z,91.10
2018-05-14T20:51:43.788Z,91.20
2018-05-14T20:54:11.251Z,91.00
2018-05-14T20:56:38.734Z,91.30
2018-05-14T20:59:06.959Z,92.00
2018-05-14T21:01:34.417Z,91.90
2018-05-14T21:04:01.959Z,92.40
2018-05-14T21:06:29.420Z,92.10
2018-05-14T21:08:56.895Z,92.20
2018-05-14T21:11:24.354Z,92.20
2018-05-14T21:13:51.824Z,92.50
2018-05-14T21:16:19.271Z,92.60
2018-05-14T21:18:46.754Z,93.00
2018-05-14T21:21:14.237Z,93.20
2018-05-14T21:23:42.488Z,93.40
2018-05-14T21:26:09.996Z,93.40
2018-05-14T21:28:37.479Z,93.30
2018-05-14T21:31:04.945Z,93.40
2018-05-14T21:33:32.400Z,93.30
2018-05-14T21:35:59.873Z,93.60
2018-05-14T21:38:27.341Z,93.30
2018-05-14T21:40:55.921Z,93.50
2018-05-14T21:43:23.458Z,94.20
2018-05-14T21:45:50.929Z,94.20
2018-05-14T21:48:18.763Z,94.40
2018-05-14T21:50:46.221Z,94.20
2018-05-14T21:53:13.721Z,94.40
2018-05-14T21:55:41.184Z,95.00
2018-05-14T21:58:08.693Z,94.80
2018-05-14T22:00:36.151Z,94.80
2018-05-14T22:03:03.610Z,94.90
2018-05-14T22:05:31.112Z,95.20
2018-05-14T22:07:58.579Z,95.20
2018-05-14T22:10:26.805Z,95.30
2018-05-14T22:12:54.265Z,95.30
2018-05-14T22:15:21.767Z,95.20
2018-05-14T22:17:49.320Z,95.60
2018-05-14T22:20:16.879Z,95.70
2018-05-14T22:22:44.339Z,95.80
2018-05-14T22:25:11.813Z,96.00
2018-05-14T22:27:39.355Z,96.20
2018-05-14T22:30:06.915Z,96.30
2018-05-14T22:32:34.372Z,96.60
2018-05-14T22:35:01.947Z,96.80
2018-05-14T22:37:29.509Z,96.70
2018-05-14T22:39:56.895Z,96.90
2018-05-14T22:42:25.134Z,97.10
2018-05-14T22:44:52.606Z,97.10
2018-05-14T22:47:20.065Z,97.10
2018-05-14T22:49:49.044Z,97.50
2018-05-14T22:52:16.523Z,97.50
2018-05-14T22:54:44.780Z,98.20
2018-05-14T22:57:12.235Z,98.20
2018-05-14T22:59:39.806Z,98.40
2018-05-14T23:02:07.255Z,99.10
2018-05-14T23:04:34.726Z,98.80
2018-05-14T23:07:02.271Z,98.80
2018-05-14T23:09:29.760Z,99.00
2018-05-14T23:11:57.207Z,99.00
2018-05-14T23:14:24.723Z,99.10
2018-05-14T23:16:52.275Z,98.50
2018-05-14T23:19:19.722Z,98.50
2018-05-14T23:21:47.179Z,98.70
2018-05-14T23:24:14.671Z,98.90
2018-05-14T23:26:42.140Z,99.20
2018-05-14T23:29:09.624Z,99.20
2018-05-14T23:31:37.205Z,99.30
2018-05-14T23:34:05.427Z,99.40
2018-05-14T23:36:32.896Z,99.40
2018-05-14T23:39:00.360Z,99.60
2018-05-14T23:41:27.916Z,99.70
2018-05-14T23:43:55.479Z,99.60
2018-05-14T23:46:23.039Z,99.70
2018-05-14T23:48:50.516Z,99.70
2018-05-14T23:51:19.492Z,99.90
2018-05-14T23:53:47.051Z,99.90
2018-05-14T23:56:14.529Z,99.90
2018-05-14T23:58:41.987Z,99.90
